createdAt,value
2023-03-22T00:00:27.364Z,309.73
2023-03-22T00:02:56.620Z,315.40
2023-03-22T00:05:25.712Z,323.83
2023-03-22T00:07:54.135Z,307.77
2023-03-22T00:10:22.045Z,317.63
2023-03-22T00:12:49.696Z,315.15
2023-03-22T00:15:17.603Z,298.70
2023-03-22T00:17:45.626Z,320.25
2023-03-22T00:20:13.593Z,317.55
2023-03-22T00:22:42.607Z,322.42
2023-03-22T00:25:10.980Z,301.77
2023-03-22T00:27:38.728Z,314.73
2023-03-22T00:30:08.982Z,324.23
2023-03-22T00:32:36.974Z,315.33
2023-03-22T00:35:05.427Z,302.67
2023-03-22T00:37:34.298Z,303.02
2023-03-22T00:40:04.599Z,318.15
2023-03-22T00:42:32.276Z,309.77
2023-03-22T00:44:59.902Z,299.35
2023-03-22T00:47:27.604Z,309.52
2023-03-22T00:49:55.512Z,299.95
2023-03-22T00:52:23.290Z,310.25
2023-03-22T00:54:51.287Z,308.40
2023-03-22T00:57:21.212Z,313.45
2023-03-22T00:59:49.279Z,298.52
2023-03-22T01:02:17.402Z,314.00
2023-03-22T01:04:46.281Z,327.23
2023-03-22T01:07:17.566Z,310.50
2023-03-22T01:09:45.831Z,298.83
2023-03-22T01:12:16.109Z,319.20
2023-03-22T01:14:45.663Z,304.40
2023-03-22T01:17:13.438Z,314.45
2023-03-22T01:19:41.213Z,308.77
2023-03-22T01:22:09.514Z,326.23
2023-03-22T01:24:37.635Z,304.15
2023-03-22T01:27:05.787Z,302.88
2023-03-22T01:29:35.300Z,301.08
2023-03-22T01:32:05.176Z,303.95
2023-03-22T01:34:33.126Z,332.45
2023-03-22T01:37:03.002Z,294.83
2023-03-22T01:39:32.854Z,309.90
2023-03-22T01:42:05.501Z,311.15
2023-03-22T01:44:33.639Z,308.10
2023-03-22T01:47:05.090Z,336.00
2023-03-22T01:49:35.681Z,339.85
2023-03-22T01:52:07.996Z,324.77
2023-03-22T01:54:46.017Z,321.60
2023-03-22T01:57:37.404Z,319.80
2023-03-22T02:00:10.772Z,326.67
2023-03-22T02:03:07.066Z,315.80
2023-03-22T02:05:41.812Z,315.92
2023-03-22T02:08:10.563Z,317.77
2023-03-22T02:10:53.639Z,317.70
2023-03-22T02:13:38.860Z,315.85
2023-03-22T02:16:31.946Z,311.15
2023-03-22T02:19:33.371Z,314.17
2023-03-22T02:22:22.820Z,312.95
2023-03-22T02:25:28.359Z,312.90
2023-03-22T02:28:14.483Z,288.52
2023-03-22T02:31:15.553Z,309.48
2023-03-22T02:34:17.909Z,321.08
2023-03-22T02:37:43.262Z,307.92
2023-03-22T02:40:16.689Z,294.50
2023-03-22T02:42:53.109Z,296.10
2023-03-22T02:45:29.013Z,325.73
2023-03-22T02:48:03.584Z,311.70
2023-03-22T02:50:39.465Z,305.30
2023-03-22T02:53:15.906Z,314.30
2023-03-22T02:55:49.829Z,314.80
2023-03-22T02:58:22.225Z,332.25
2023-03-22T03:00:55.531Z,329.63
2023-03-22T03:03:27.086Z,327.45
2023-03-22T03:05:59.404Z,317.08
2023-03-22T03:08:28.371Z,322.00
2023-03-22T03:10:58.562Z,323.30
2023-03-22T03:13:26.666Z,315.77
2023-03-22T03:15:59.601Z,307.92
2023-03-22T03:18:45.667Z,311.15
2023-03-22T03:21:24.918Z,296.30
2023-03-22T03:24:00.240Z,309.90
2023-03-22T03:26:39.983Z,298.25
2023-03-22T03:29:15.853Z,320.38
2023-03-22T03:31:50.057Z,311.92
2023-03-22T03:34:23.088Z,323.88
2023-03-22T03:36:57.213Z,306.40
2023-03-22T03:39:29.566Z,322.75
2023-03-22T03:42:01.355Z,324.23
2023-03-22T03:44:30.984Z,322.30
2023-03-22T03:46:59.578Z,321.27
2023-03-22T03:49:27.712Z,316.40
2023-03-22T03:51:56.862Z,320.20
2023-03-22T03:54:25.188Z,326.70
2023-03-22T03:56:54.008Z,330.05
2023-03-22T03:59:23.260Z,323.17
2023-03-22T04:01:53.072Z,311.75
2023-03-22T04:04:30.531Z,325.33
2023-03-22T04:07:04.988Z,317.95
2023-03-22T04:09:37.603Z,312.02
2023-03-22T04:12:15.961Z,319.10
2023-03-22T04:14:51.470Z,311.92
2023-03-22T04:17:25.619Z,316.00
2023-03-22T04:19:56.414Z,283.23
2023-03-22T04:22:26.310Z,317.35
2023-03-22T04:24:53.993Z,312.08
2023-03-22T04:27:24.146Z,307.95
2023-03-22T04:30:06.204Z,317.88
2023-03-22T04:32:52.356Z,297.80
2023-03-22T04:35:26.911Z,307.67
2023-03-22T04:37:56.014Z,323.25
2023-03-22T04:40:26.388Z,308.90
2023-03-22T04:43:03.971Z,307.63
2023-03-22T04:46:12.711Z,298.92
2023-03-22T04:48:47.556Z,298.42
2023-03-22T04:51:15.583Z,316.17
2023-03-22T04:54:03.518Z,328.23
2023-03-22T04:56:31.468Z,307.75
2023-03-22T04:58:59.200Z,320.88
2023-03-22T05:01:30.091Z,303.15
2023-03-22T05:04:09.467Z,306.30
2023-03-22T05:06:37.169Z,311.48
2023-03-22T05:09:12.567Z,312.17
2023-03-22T05:11:41.125Z,313.80
2023-03-22T05:14:24.604Z,307.50
2023-03-22T05:16:54.056Z,304.42
2023-03-22T05:19:22.363Z,297.10
2023-03-22T05:21:57.818Z,309.58
2023-03-22T05:24:30.593Z,312.00
2023-03-22T05:27:01.048Z,316.75
2023-03-22T05:29:28.987Z,321.08
2023-03-22T05:32:09.784Z,321.20
2023-03-22T05:34:37.819Z,298.77
2023-03-22T05:37:16.782Z,302.05
2023-03-22T05:39:56.218Z,290.23
2023-03-22T05:42:32.371Z,303.05
2023-03-22T05:45:01.785Z,287.90
2023-03-22T05:47:31.260Z,298.83
2023-03-22T05:50:15.393Z,293.77
2023-03-22T05:52:44.641Z,271.83
2023-03-22T05:55:23.170Z,270.07
2023-03-22T05:57:56.521Z,287.98
2023-03-22T06:00:26.127Z,296.63
2023-03-22T06:03:35.460Z,280.92
2023-03-22T06:06:20.967Z,264.27
2023-03-22T06:09:07.290Z,273.90
2023-03-22T06:11:44.006Z,266.27
2023-03-22T06:14:12.151Z,281.10
2023-03-22T06:17:01.945Z,258.60
2023-03-22T06:19:31.202Z,264.20
2023-03-22T06:22:02.429Z,284.23
2023-03-22T06:24:32.242Z,282.23
2023-03-22T06:27:00.197Z,271.50
2023-03-22T06:29:28.998Z,276.30
2023-03-22T06:31:59.850Z,279.87
2023-03-22T06:34:27.818Z,286.67
2023-03-22T06:36:57.620Z,273.30
2023-03-22T06:39:32.779Z,272.70
2023-03-22T06:42:00.962Z,283.20
2023-03-22T06:44:29.345Z,291.23
2023-03-22T06:47:23.469Z,293.20
2023-03-22T06:50:10.814Z,272.02
2023-03-22T06:53:18.192Z,281.10
2023-03-22T06:55:46.053Z,279.85
2023-03-22T06:58:20.382Z,285.95
2023-03-22T07:00:48.066Z,278.37
2023-03-22T07:03:17.020Z,302.10
2023-03-22T07:05:53.461Z,289.92
2023-03-22T07:08:22.557Z,308.63
2023-03-22T07:10:52.010Z,322.08
2023-03-22T07:13:23.157Z,311.90
2023-03-22T07:15:56.890Z,280.50
2023-03-22T07:18:41.036Z,318.33
2023-03-22T07:21:09.969Z,310.50
2023-03-22T07:23:42.216Z,329.70
2023-03-22T07:26:14.388Z,319.38
2023-03-22T07:28:46.076Z,327.63
2023-03-22T07:31:16.099Z,329.88
2023-03-22T07:34:04.668Z,318.60
2023-03-22T07:36:38.699Z,314.40
2023-03-22T07:39:11.449Z,322.05
2023-03-22T07:41:44.077Z,313.48
2023-03-22T07:44:20.827Z,329.42
2023-03-22T07:47:01.942Z,338.08
2023-03-22T07:49:37.951Z,313.73
2023-03-22T07:52:09.849Z,328.60
2023-03-22T07:54:40.166Z,340.27
2023-03-22T07:57:09.560Z,342.08
2023-03-22T07:59:48.483Z,339.75
2023-03-22T08:02:17.087Z,333.38
2023-03-22T08:04:52.219Z,335.15
2023-03-22T08:07:42.255Z,314.52
2023-03-22T08:10:13.021Z,320.25
2023-03-22T08:12:40.893Z,323.88
2023-03-22T08:15:17.856Z,302.48
2023-03-22T08:17:46.231Z,312.63
2023-03-22T08:20:20.879Z,322.27
2023-03-22T08:22:54.866Z,322.63
2023-03-22T08:25:30.252Z,309.95
2023-03-22T08:28:06.682Z,326.13
2023-03-22T08:30:34.414Z,322.05
2023-03-22T08:33:02.174Z,310.45
2023-03-22T08:35:30.110Z,318.38
2023-03-22T08:37:58.744Z,309.20
2023-03-22T08:40:36.655Z,332.52
2023-03-22T08:43:05.296Z,340.80
2023-03-22T08:45:33.087Z,351.55
2023-03-22T08:48:09.045Z,335.77
2023-03-22T08:50:56.702Z,306.50
2023-03-22T08:53:31.550Z,305.05
2023-03-22T08:56:22.614Z,313.05
2023-03-22T08:59:02.024Z,282.33
2023-03-22T09:01:55.779Z,265.00
2023-03-22T09:04:24.120Z,270.67
2023-03-22T09:06:51.850Z,241.95
2023-03-22T09:09:19.609Z,259.35
2023-03-22T09:11:51.983Z,252.82
2023-03-22T09:14:19.669Z,256.02
2023-03-22T09:16:48.749Z,234.60
2023-03-22T09:19:17.080Z,250.98
2023-03-22T09:21:45.974Z,259.60
2023-03-22T09:24:21.601Z,257.05
2023-03-22T09:26:55.568Z,250.38
2023-03-22T09:29:23.917Z,256.10
2023-03-22T09:31:51.694Z,282.05
2023-03-22T09:34:27.054Z,259.85
2023-03-22T09:36:57.455Z,256.98
2023-03-22T09:39:30.362Z,257.77
2023-03-22T09:42:06.097Z,256.77
2023-03-22T09:44:37.512Z,263.67
2023-03-22T09:47:14.529Z,255.40
2023-03-22T09:49:53.420Z,268.73
2023-03-22T09:52:22.620Z,250.95
2023-03-22T09:54:52.746Z,260.52
2023-03-22T09:57:28.461Z,252.93
2023-03-22T10:00:02.088Z,235.98
2023-03-22T10:02:50.816Z,219.90
2023-03-22T10:05:25.129Z,225.40
2023-03-22T10:08:15.252Z,218.80
2023-03-22T10:10:43.237Z,200.68
2023-03-22T10:13:19.812Z,218.88
2023-03-22T10:15:50.065Z,207.40
2023-03-22T10:18:20.604Z,195.02
2023-03-22T10:20:55.432Z,200.18
2023-03-22T10:23:30.991Z,204.35
2023-03-22T10:26:01.254Z,194.23
2023-03-22T10:28:35.921Z,187.65
2023-03-22T10:31:05.750Z,206.68
2023-03-22T10:33:39.453Z,197.23
2023-03-22T10:36:13.742Z,218.65
2023-03-22T10:38:47.010Z,224.68
2023-03-22T10:41:18.451Z,208.95
2023-03-22T10:43:51.222Z,216.98
2023-03-22T10:46:22.414Z,214.30
2023-03-22T10:48:54.049Z,226.15
2023-03-22T10:51:27.321Z,221.52
2023-03-22T10:53:58.130Z,218.10
2023-03-22T10:56:26.876Z,214.65
2023-03-22T10:58:57.307Z,207.27
2023-03-22T11:01:31.432Z,202.82
2023-03-22T11:04:01.660Z,203.45
2023-03-22T11:06:32.845Z,206.05
2023-03-22T11:09:03.791Z,222.52
2023-03-22T11:11:35.415Z,204.05
2023-03-22T11:14:08.243Z,203.50
2023-03-22T11:16:44.419Z,194.40
2023-03-22T11:19:18.139Z,191.98
2023-03-22T11:21:46.243Z,191.07
2023-03-22T11:24:15.244Z,173.98
2023-03-22T11:26:44.906Z,178.13
2023-03-22T11:29:17.710Z,180.10
2023-03-22T11:31:56.276Z,183.35
2023-03-22T11:34:27.997Z,185.35
2023-03-22T11:36:57.443Z,174.63
2023-03-22T11:39:28.231Z,165.77
2023-03-22T11:42:01.108Z,177.40
2023-03-22T11:44:35.405Z,174.95
2023-03-22T11:47:05.215Z,175.52
2023-03-22T11:49:40.582Z,167.77
2023-03-22T11:52:12.265Z,175.23
2023-03-22T11:54:42.300Z,175.15
2023-03-22T11:57:15.480Z,170.38
2023-03-22T11:59:51.004Z,174.63
2023-03-22T12:02:24.699Z,170.70
2023-03-22T12:04:57.320Z,171.43
2023-03-22T12:07:26.112Z,178.60
2023-03-22T12:10:00.258Z,172.65
2023-03-22T12:12:31.809Z,180.50
2023-03-22T12:15:05.814Z,164.57
2023-03-22T12:17:39.481Z,162.93
2023-03-22T12:20:20.879Z,152.40
2023-03-22T12:22:52.653Z,140.57
2023-03-22T12:25:22.885Z,143.18
2023-03-22T12:27:54.678Z,141.25
2023-03-22T12:30:26.944Z,143.10
2023-03-22T12:33:02.550Z,148.85
2023-03-22T12:35:34.678Z,144.23
2023-03-22T12:38:23.579Z,133.20
2023-03-22T12:40:54.459Z,135.57
2023-03-22T12:43:36.681Z,155.20
2023-03-22T12:46:07.162Z,139.73
2023-03-22T12:48:40.753Z,152.13
2023-03-22T12:51:10.624Z,142.90
2023-03-22T12:53:42.450Z,149.55
2023-03-22T12:56:14.010Z,127.43
2023-03-22T12:58:45.400Z,131.88
2023-03-22T13:01:23.471Z,137.25
2023-03-22T13:03:54.807Z,138.90
2023-03-22T13:06:33.205Z,140.05
2023-03-22T13:09:15.532Z,138.75
2023-03-22T13:11:44.940Z,145.70
2023-03-22T13:14:14.430Z,148.40
2023-03-22T13:16:52.649Z,160.77
2023-03-22T13:19:34.097Z,143.40
2023-03-22T13:22:16.472Z,141.38
2023-03-22T13:25:08.347Z,140.80
2023-03-22T13:27:38.889Z,136.45
2023-03-22T13:30:15.610Z,132.15
2023-03-22T13:32:54.618Z,139.13
2023-03-22T13:35:28.175Z,131.38
2023-03-22T13:38:03.075Z,152.52
2023-03-22T13:40:37.380Z,138.43
2023-03-22T13:43:13.409Z,148.95
2023-03-22T13:46:11.593Z,141.35
2023-03-22T13:49:17.128Z,143.20
2023-03-22T13:51:45.711Z,131.43
2023-03-22T13:54:19.800Z,130.38
2023-03-22T13:56:53.244Z,128.82
2023-03-22T13:59:27.033Z,123.00
2023-03-22T14:01:59.447Z,122.40
2023-03-22T14:04:37.711Z,125.28
2023-03-22T14:07:13.200Z,125.68
2023-03-22T14:09:46.454Z,132.57
2023-03-22T14:12:20.615Z,128.13
2023-03-22T14:14:53.121Z,127.93
2023-03-22T14:17:32.829Z,131.02
2023-03-22T14:20:05.338Z,129.77
